sensor_id;sensor_type;location;lat;lon;timestamp;P1;durP1;ratioP1;P2;durP2;ratioP2
61640;SDS011;62201;49.966;8.342;2023-03-02T00:00:28;18.37;;;10.70;;
61640;SDS011;62201;49.966;8.342;2023-03-02T00:02:54;19.33;;;9.90;;
61640;SDS011;62201;49.966;8.342;2023-03-02T00:05:19;15.90;;;9.47;;
61640;SDS011;62201;49.966;8.342;2023-03-02T00:07:44;20.50;;;10.43;;
61640;SDS011;62201;49.966;8.342;2023-03-02T00:10:10;17.47;;;10.30;;
61640;SDS011;62201;49.966;8.342;2023-03-02T00:12:35;17.23;;;10.40;;
61640;SDS011;62201;49.966;8.342;2023-03-02T00:15:01;16.90;;;10.07;;
61640;SDS011;62201;49.966;8.342;2023-03-02T00:17:26;17.43;;;10.20;;
61640;SDS011;62201;49.966;8.342;2023-03-02T00:19:55;18.23;;;10.70;;
61640;SDS011;62201;49.966;8.342;2023-03-02T00:22:39;17.63;;;10.17;;
61640;SDS011;62201;49.966;8.342;2023-03-02T00:25:06;15.50;;;9.83;;
61640;SDS011;62201;49.966;8.342;2023-03-02T00:27:32;18.03;;;10.53;;
61640;SDS011;62201;49.966;8.342;2023-03-02T00:29:57;21.53;;;10.57;;
61640;SDS011;62201;49.966;8.342;2023-03-02T00:32:23;15.90;;;10.17;;
61640;SDS011;62201;49.966;8.342;2023-03-02T00:34:48;17.83;;;10.30;;
61640;SDS011;62201;49.966;8.342;2023-03-02T00:37:14;18.53;;;10.77;;
61640;SDS011;62201;49.966;8.342;2023-03-02T00:39:40;20.90;;;11.00;;
61640;SDS011;62201;49.966;8.342;2023-03-02T00:42:05;16.80;;;10.60;;
61640;SDS011;62201;49.966;8.342;2023-03-02T00:44:30;19.23;;;11.43;;
61640;SDS011;62201;49.966;8.342;2023-03-02T00:46:56;19.87;;;11.93;;
61640;SDS011;62201;49.966;8.342;2023-03-02T00:49:21;18.03;;;10.80;;
61640;SDS011;62201;49.966;8.342;2023-03-02T00:51:47;19.07;;;11.10;;
61640;SDS011;62201;49.966;8.342;2023-03-02T00:54:13;17.93;;;10.27;;
61640;SDS011;62201;49.966;8.342;2023-03-02T00:56:38;16.80;;;10.20;;
61640;SDS011;62201;49.966;8.342;2023-03-02T00:59:07;17.77;;;10.77;;
61640;SDS011;62201;49.966;8.342;2023-03-02T01:01:53;21.20;;;11.20;;
61640;SDS011;62201;49.966;8.342;2023-03-02T01:04:28;17.57;;;10.53;;
61640;SDS011;62201;49.966;8.342;2023-03-02T01:07:00;20.43;;;11.13;;
61640;SDS011;62201;49.966;8.342;2023-03-02T01:09:28;18.07;;;10.37;;
61640;SDS011;62201;49.966;8.342;2023-03-02T01:11:54;19.43;;;10.80;;
61640;SDS011;62201;49.966;8.342;2023-03-02T01:14:20;18.57;;;10.93;;
61640;SDS011;62201;49.966;8.342;2023-03-02T01:16:45;19.37;;;10.30;;
61640;SDS011;62201;49.966;8.342;2023-03-02T01:19:12;18.33;;;10.43;;
61640;SDS011;62201;49.966;8.342;2023-03-02T01:21:38;18.50;;;10.47;;
61640;SDS011;62201;49.966;8.342;2023-03-02T01:24:03;17.97;;;10.43;;
61640;SDS011;62201;49.966;8.342;2023-03-02T01:26:29;19.77;;;10.43;;
61640;SDS011;62201;49.966;8.342;2023-03-02T01:28:54;17.70;;;10.40;;
61640;SDS011;62201;49.966;8.342;2023-03-02T01:31:20;17.47;;;10.57;;
61640;SDS011;62201;49.966;8.342;2023-03-02T01:33:46;17.90;;;10.63;;
61640;SDS011;62201;49.966;8.342;2023-03-02T01:36:12;19.87;;;10.93;;
61640;SDS011;62201;49.966;8.342;2023-03-02T01:38:37;18.13;;;10.80;;
61640;SDS011;62201;49.966;8.342;2023-03-02T01:41:03;19.77;;;10.73;;
61640;SDS011;62201;49.966;8.342;2023-03-02T01:43:28;19.40;;;10.43;;
61640;SDS011;62201;49.966;8.342;2023-03-02T01:45:55;19.20;;;10.77;;
61640;SDS011;62201;49.966;8.342;2023-03-02T01:48:28;19.37;;;10.97;;
61640;SDS011;62201;49.966;8.342;2023-03-02T01:50:57;17.50;;;10.33;;
61640;SDS011;62201;49.966;8.342;2023-03-02T01:53:26;20.30;;;10.57;;
61640;SDS011;62201;49.966;8.342;2023-03-02T01:55:55;19.50;;;11.30;;
61640;SDS011;62201;49.966;8.342;2023-03-02T01:58:21;18.57;;;10.53;;
61640;SDS011;62201;49.966;8.342;2023-03-02T02:00:47;20.10;;;10.70;;
61640;SDS011;62201;49.966;8.342;2023-03-02T02:03:15;22.23;;;11.30;;
61640;SDS011;62201;49.966;8.342;2023-03-02T02:05:45;18.87;;;10.53;;
61640;SDS011;62201;49.966;8.342;2023-03-02T02:08:17;19.40;;;10.68;;
61640;SDS011;62201;49.966;8.342;2023-03-02T02:10:42;17.97;;;10.73;;
61640;SDS011;62201;49.966;8.342;2023-03-02T02:13:08;21.23;;;11.10;;
61640;SDS011;62201;49.966;8.342;2023-03-02T02:15:35;17.30;;;10.73;;
61640;SDS011;62201;49.966;8.342;2023-03-02T02:18:02;18.70;;;11.23;;
61640;SDS011;62201;49.966;8.342;2023-03-02T02:20:29;18.37;;;10.43;;
61640;SDS011;62201;49.966;8.342;2023-03-02T02:28:33;20.07;;;11.37;;
61640;SDS011;62201;49.966;8.342;2023-03-02T02:34:05;21.10;;;10.60;;
61640;SDS011;62201;49.966;8.342;2023-03-02T02:36:46;20.73;;;11.03;;
61640;SDS011;62201;49.966;8.342;2023-03-02T02:39:15;17.67;;;10.80;;
61640;SDS011;62201;49.966;8.342;2023-03-02T02:41:45;16.93;;;10.13;;
61640;SDS011;62201;49.966;8.342;2023-03-02T02:44:16;19.40;;;10.80;;
61640;SDS011;62201;49.966;8.342;2023-03-02T02:46:43;18.73;;;10.63;;
61640;SDS011;62201;49.966;8.342;2023-03-02T02:49:42;18.80;;;10.73;;
61640;SDS011;62201;49.966;8.342;2023-03-02T02:52:02;19.00;;;11.60;;
61640;SDS011;62201;49.966;8.342;2023-03-02T02:54:30;21.60;;;12.10;;
61640;SDS011;62201;49.966;8.342;2023-03-02T02:56:57;18.27;;;10.20;;
61640;SDS011;62201;49.966;8.342;2023-03-02T02:59:26;20.27;;;11.20;;
61640;SDS011;62201;49.966;8.342;2023-03-02T03:01:54;12.07;;;7.33;;
61640;SDS011;62201;49.966;8.342;2023-03-02T03:04:21;17.80;;;11.03;;
61640;SDS011;62201;49.966;8.342;2023-03-02T03:09:19;17.17;;;10.17;;
61640;SDS011;62201;49.966;8.342;2023-03-02T03:11:46;16.33;;;9.00;;
61640;SDS011;62201;49.966;8.342;2023-03-02T03:14:16;18.97;;;11.30;;
61640;SDS011;62201;49.966;8.342;2023-03-02T03:16:44;19.27;;;10.83;;
61640;SDS011;62201;49.966;8.342;2023-03-02T03:19:21;18.87;;;10.33;;
61640;SDS011;62201;49.966;8.342;2023-03-02T03:21:49;18.60;;;10.70;;
61640;SDS011;62201;49.966;8.342;2023-03-02T03:24:17;17.47;;;10.23;;
61640;SDS011;62201;49.966;8.342;2023-03-02T03:26:42;19.57;;;10.47;;
61640;SDS011;62201;49.966;8.342;2023-03-02T03:29:08;20.57;;;10.70;;
61640;SDS011;62201;49.966;8.342;2023-03-02T03:31:34;19.23;;;11.43;;
61640;SDS011;62201;49.966;8.342;2023-03-02T03:34:00;19.83;;;11.00;;
61640;SDS011;62201;49.966;8.342;2023-03-02T03:36:27;17.23;;;10.83;;
61640;SDS011;62201;49.966;8.342;2023-03-02T03:38:53;20.00;;;11.03;;
61640;SDS011;62201;49.966;8.342;2023-03-02T03:41:19;16.97;;;11.10;;
61640;SDS011;62201;49.966;8.342;2023-03-02T03:43:45;19.03;;;11.03;;
61640;SDS011;62201;49.966;8.342;2023-03-02T03:46:10;18.87;;;10.60;;
61640;SDS011;62201;49.966;8.342;2023-03-02T03:48:36;19.23;;;11.00;;
61640;SDS011;62201;49.966;8.342;2023-03-02T03:51:01;17.83;;;10.63;;
61640;SDS011;62201;49.966;8.342;2023-03-02T03:53:27;20.83;;;11.17;;
61640;SDS011;62201;49.966;8.342;2023-03-02T03:55:52;20.93;;;11.53;;
61640;SDS011;62201;49.966;8.342;2023-03-02T03:58:18;19.60;;;11.27;;
61640;SDS011;62201;49.966;8.342;2023-03-02T04:00:44;19.37;;;12.10;;
61640;SDS011;62201;49.966;8.342;2023-03-02T04:03:12;18.90;;;11.77;;
61640;SDS011;62201;49.966;8.342;2023-03-02T04:05:38;19.87;;;11.97;;
61640;SDS011;62201;49.966;8.342;2023-03-02T04:08:04;20.43;;;11.20;;
61640;SDS011;62201;49.966;8.342;2023-03-02T04:10:30;23.27;;;12.60;;
61640;SDS011;62201;49.966;8.342;2023-03-02T04:12:55;19.40;;;11.73;;
61640;SDS011;62201;49.966;8.342;2023-03-02T04:15:21;25.07;;;12.17;;
61640;SDS011;62201;49.966;8.342;2023-03-02T04:17:46;19.87;;;11.93;;
61640;SDS011;62201;49.966;8.342;2023-03-02T04:20:12;18.67;;;11.80;;
61640;SDS011;62201;49.966;8.342;2023-03-02T04:22:44;21.93;;;12.20;;
61640;SDS011;62201;49.966;8.342;2023-03-02T04:25:12;23.37;;;12.97;;
61640;SDS011;62201;49.966;8.342;2023-03-02T04:27:39;20.87;;;11.87;;
61640;SDS011;62201;49.966;8.342;2023-03-02T04:30:04;23.40;;;12.43;;
61640;SDS011;62201;49.966;8.342;2023-03-02T04:32:31;25.10;;;13.03;;
61640;SDS011;62201;49.966;8.342;2023-03-02T04:34:56;21.47;;;12.23;;
61640;SDS011;62201;49.966;8.342;2023-03-02T04:37:22;21.00;;;12.27;;
61640;SDS011;62201;49.966;8.342;2023-03-02T04:39:47;20.30;;;11.83;;
61640;SDS011;62201;49.966;8.342;2023-03-02T04:42:16;21.00;;;12.07;;
61640;SDS011;62201;49.966;8.342;2023-03-02T04:44:43;21.03;;;12.03;;
61640;SDS011;62201;49.966;8.342;2023-03-02T04:47:08;22.20;;;11.90;;
61640;SDS011;62201;49.966;8.342;2023-03-02T04:49:40;21.50;;;12.23;;
61640;SDS011;62201;49.966;8.342;2023-03-02T04:52:14;21.00;;;12.00;;
61640;SDS011;62201;49.966;8.342;2023-03-02T04:54:58;18.97;;;10.97;;
61640;SDS011;62201;49.966;8.342;2023-03-02T04:57:24;21.63;;;11.70;;
61640;SDS011;62201;49.966;8.342;2023-03-02T04:59:49;21.80;;;11.97;;
61640;SDS011;62201;49.966;8.342;2023-03-02T05:02:21;18.53;;;11.80;;
61640;SDS011;62201;49.966;8.342;2023-03-02T05:05:05;23.10;;;12.00;;
61640;SDS011;62201;49.966;8.342;2023-03-02T05:07:33;22.77;;;11.40;;
61640;SDS011;62201;49.966;8.342;2023-03-02T05:10:05;19.30;;;11.17;;
61640;SDS011;62201;49.966;8.342;2023-03-02T05:12:40;17.73;;;11.03;;
61640;SDS011;62201;49.966;8.342;2023-03-02T05:15:24;21.23;;;12.60;;
61640;SDS011;62201;49.966;8.342;2023-03-02T05:18:00;18.10;;;10.63;;
61640;SDS011;62201;49.966;8.342;2023-03-02T05:20:33;21.10;;;11.30;;
61640;SDS011;62201;49.966;8.342;2023-03-02T05:23:06;21.70;;;11.90;;
61640;SDS011;62201;49.966;8.342;2023-03-02T05:25:52;19.15;;;11.63;;
61640;SDS011;62201;49.966;8.342;2023-03-02T05:28:21;20.48;;;11.77;;
61640;SDS011;62201;49.966;8.342;2023-03-02T05:30:48;23.50;;;12.27;;
61640;SDS011;62201;49.966;8.342;2023-03-02T05:33:15;19.13;;;11.93;;
61640;SDS011;62201;49.966;8.342;2023-03-02T05:35:40;18.53;;;11.10;;
61640;SDS011;62201;49.966;8.342;2023-03-02T05:38:06;24.40;;;12.60;;
61640;SDS011;62201;49.966;8.342;2023-03-02T05:40:32;24.17;;;11.83;;
61640;SDS011;62201;49.966;8.342;2023-03-02T05:42:58;22.03;;;12.10;;
61640;SDS011;62201;49.966;8.342;2023-03-02T05:45:25;19.63;;;11.20;;
61640;SDS011;62201;49.966;8.342;2023-03-02T05:47:52;18.60;;;11.70;;
61640;SDS011;62201;49.966;8.342;2023-03-02T05:50:18;21.60;;;12.10;;
61640;SDS011;62201;49.966;8.342;2023-03-02T05:52:44;24.40;;;11.97;;
61640;SDS011;62201;49.966;8.342;2023-03-02T05:55:11;23.60;;;12.27;;
61640;SDS011;62201;49.966;8.342;2023-03-02T05:57:38;22.73;;;12.47;;
61640;SDS011;62201;49.966;8.342;2023-03-02T06:00:04;20.20;;;11.37;;
61640;SDS011;62201;49.966;8.342;2023-03-02T06:02:30;21.23;;;12.00;;
61640;SDS011;62201;49.966;8.342;2023-03-02T06:04:56;23.73;;;11.63;;
61640;SDS011;62201;49.966;8.342;2023-03-02T06:07:21;21.87;;;11.27;;
61640;SDS011;62201;49.966;8.342;2023-03-02T06:09:47;22.60;;;13.30;;
61640;SDS011;62201;49.966;8.342;2023-03-02T06:12:13;20.97;;;11.77;;
61640;SDS011;62201;49.966;8.342;2023-03-02T06:14:38;20.27;;;11.40;;
61640;SDS011;62201;49.966;8.342;2023-03-02T06:17:04;22.10;;;10.70;;
61640;SDS011;62201;49.966;8.342;2023-03-02T06:19:29;22.37;;;11.67;;
61640;SDS011;62201;49.966;8.342;2023-03-02T06:21:55;20.53;;;11.20;;
61640;SDS011;62201;49.966;8.342;2023-03-02T06:24:20;20.40;;;12.27;;
61640;SDS011;62201;49.966;8.342;2023-03-02T06:26:46;19.17;;;12.50;;
61640;SDS011;62201;49.966;8.342;2023-03-02T06:29:11;21.97;;;11.43;;
61640;SDS011;62201;49.966;8.342;2023-03-02T06:31:36;30.10;;;17.40;;
61640;SDS011;62201;49.966;8.342;2023-03-02T06:34:02;19.17;;;12.23;;
61640;SDS011;62201;49.966;8.342;2023-03-02T06:36:27;22.80;;;12.33;;
61640;SDS011;62201;49.966;8.342;2023-03-02T06:38:53;22.33;;;12.37;;
61640;SDS011;62201;49.966;8.342;2023-03-02T06:41:18;20.57;;;11.07;;
61640;SDS011;62201;49.966;8.342;2023-03-02T06:43:44;18.80;;;11.47;;
61640;SDS011;62201;49.966;8.342;2023-03-02T06:46:10;24.67;;;12.00;;
61640;SDS011;62201;49.966;8.342;2023-03-02T06:48:36;21.10;;;12.60;;
61640;SDS011;62201;49.966;8.342;2023-03-02T06:51:01;22.47;;;11.20;;
61640;SDS011;62201;49.966;8.342;2023-03-02T06:53:27;22.13;;;11.80;;
61640;SDS011;62201;49.966;8.342;2023-03-02T06:55:52;19.70;;;11.63;;
61640;SDS011;62201;49.966;8.342;2023-03-02T06:58:18;20.27;;;11.57;;
61640;SDS011;62201;49.966;8.342;2023-03-02T07:00:43;23.10;;;11.93;;
61640;SDS011;62201;49.966;8.342;2023-03-02T07:03:09;20.07;;;11.43;;
61640;SDS011;62201;49.966;8.342;2023-03-02T07:05:34;20.73;;;11.07;;
61640;SDS011;62201;49.966;8.342;2023-03-02T07:08:00;19.53;;;12.00;;
61640;SDS011;62201;49.966;8.342;2023-03-02T07:10:26;23.93;;;13.07;;
61640;SDS011;62201;49.966;8.342;2023-03-02T07:12:52;20.33;;;12.53;;
61640;SDS011;62201;49.966;8.342;2023-03-02T07:15:17;21.53;;;10.67;;
61640;SDS011;62201;49.966;8.342;2023-03-02T07:17:43;18.60;;;11.43;;
61640;SDS011;62201;49.966;8.342;2023-03-02T07:20:13;18.73;;;10.63;;
61640;SDS011;62201;49.966;8.342;2023-03-02T07:22:41;22.23;;;11.30;;
61640;SDS011;62201;49.966;8.342;2023-03-02T07:25:06;18.67;;;10.27;;
61640;SDS011;62201;49.966;8.342;2023-03-02T07:27:32;17.13;;;10.17;;
61640;SDS011;62201;49.966;8.342;2023-03-02T07:29:58;20.17;;;10.57;;
61640;SDS011;62201;49.966;8.342;2023-03-02T07:32:23;20.53;;;11.53;;
61640;SDS011;62201;49.966;8.342;2023-03-02T07:34:49;15.17;;;9.23;;
61640;SDS011;62201;49.966;8.342;2023-03-02T07:37:14;22.60;;;10.03;;
61640;SDS011;62201;49.966;8.342;2023-03-02T07:39:39;16.23;;;9.33;;
61640;SDS011;62201;49.966;8.342;2023-03-02T07:42:05;18.23;;;10.00;;
61640;SDS011;62201;49.966;8.342;2023-03-02T07:44:32;20.70;;;10.07;;
61640;SDS011;62201;49.966;8.342;2023-03-02T07:46:58;15.97;;;9.03;;
61640;SDS011;62201;49.966;8.342;2023-03-02T07:49:24;17.70;;;9.57;;
61640;SDS011;62201;49.966;8.342;2023-03-02T07:51:49;16.80;;;8.57;;
61640;SDS011;62201;49.966;8.342;2023-03-02T07:54:14;18.00;;;10.10;;
61640;SDS011;62201;49.966;8.342;2023-03-02T07:56:40;19.80;;;9.17;;
61640;SDS011;62201;49.966;8.342;2023-03-02T07:59:05;17.97;;;8.43;;
61640;SDS011;62201;49.966;8.342;2023-03-02T08:01:30;17.50;;;8.83;;
61640;SDS011;62201;49.966;8.342;2023-03-02T08:03:56;18.90;;;7.93;;
61640;SDS011;62201;49.966;8.342;2023-03-02T08:06:21;15.60;;;9.37;;
61640;SDS011;62201;49.966;8.342;2023-03-02T08:08:48;18.40;;;9.53;;
61640;SDS011;62201;49.966;8.342;2023-03-02T08:11:14;19.47;;;10.57;;
61640;SDS011;62201;49.966;8.342;2023-03-02T08:13:41;18.73;;;8.63;;
61640;SDS011;62201;49.966;8.342;2023-03-02T08:16:08;18.93;;;9.07;;
61640;SDS011;62201;49.966;8.342;2023-03-02T08:18:35;19.03;;;9.23;;
61640;SDS011;62201;49.966;8.342;2023-03-02T08:21:01;20.03;;;9.13;;
61640;SDS011;62201;49.966;8.342;2023-03-02T08:23:27;28.63;;;9.97;;
61640;SDS011;62201;49.966;8.342;2023-03-02T08:25:52;18.50;;;9.43;;
61640;SDS011;62201;49.966;8.342;2023-03-02T08:28:19;16.77;;;9.27;;
61640;SDS011;62201;49.966;8.342;2023-03-02T08:30:53;17.77;;;8.47;;
61640;SDS011;62201;49.966;8.342;2023-03-02T08:33:22;14.37;;;8.70;;
61640;SDS011;62201;49.966;8.342;2023-03-02T08:36:02;14.80;;;8.87;;
61640;SDS011;62201;49.966;8.342;2023-03-02T08:38:29;17.07;;;8.83;;
61640;SDS011;62201;49.966;8.342;2023-03-02T08:40:56;18.10;;;9.63;;
61640;SDS011;62201;49.966;8.342;2023-03-02T08:43:23;15.10;;;9.00;;
61640;SDS011;62201;49.966;8.342;2023-03-02T08:45:53;15.13;;;8.90;;
61640;SDS011;62201;49.966;8.342;2023-03-02T08:48:20;17.70;;;9.47;;
61640;SDS011;62201;49.966;8.342;2023-03-02T08:53:29;14.50;;;6.37;;
61640;SDS011;62201;49.966;8.342;2023-03-02T08:55:57;18.03;;;8.17;;
61640;SDS011;62201;49.966;8.342;2023-03-02T08:58:22;18.93;;;10.03;;
61640;SDS011;62201;49.966;8.342;2023-03-02T09:00:48;13.43;;;7.33;;
61640;SDS011;62201;49.966;8.342;2023-03-02T09:03:13;13.73;;;7.73;;
61640;SDS011;62201;49.966;8.342;2023-03-02T09:05:39;18.97;;;9.67;;
61640;SDS011;62201;49.966;8.342;2023-03-02T09:08:04;17.80;;;7.40;;
61640;SDS011;62201;49.966;8.342;2023-03-02T09:10:30;14.23;;;9.17;;
61640;SDS011;62201;49.966;8.342;2023-03-02T09:12:56;15.83;;;10.20;;
61640;SDS011;62201;49.966;8.342;2023-03-02T09:15:21;14.63;;;9.40;;
61640;SDS011;62201;49.966;8.342;2023-03-02T09:17:47;18.00;;;9.30;;
61640;SDS011;62201;49.966;8.342;2023-03-02T09:20:12;14.23;;;6.90;;
61640;SDS011;62201;49.966;8.342;2023-03-02T09:22:38;20.90;;;9.73;;
61640;SDS011;62201;49.966;8.342;2023-03-02T09:25:04;14.43;;;9.03;;
61640;SDS011;62201;49.966;8.342;2023-03-02T09:27:30;15.60;;;8.93;;
61640;SDS011;62201;49.966;8.342;2023-03-02T09:29:55;17.80;;;10.07;;
61640;SDS011;62201;49.966;8.342;2023-03-02T09:32:21;16.13;;;10.00;;
61640;SDS011;62201;49.966;8.342;2023-03-02T09:34:46;17.58;;;9.88;;
61640;SDS011;62201;49.966;8.342;2023-03-02T09:37:12;14.75;;;9.25;;
61640;SDS011;62201;49.966;8.342;2023-03-02T09:39:37;16.75;;;9.05;;
61640;SDS011;62201;49.966;8.342;2023-03-02T09:47:58;16.27;;;7.20;;
61640;SDS011;62201;49.966;8.342;2023-03-02T09:50:32;14.30;;;8.52;;
61640;SDS011;62201;49.966;8.342;2023-03-02T09:53:16;13.88;;;9.50;;
61640;SDS011;62201;49.966;8.342;2023-03-02T09:55:55;17.02;;;9.02;;
61640;SDS011;62201;49.966;8.342;2023-03-02T09:58:24;14.45;;;9.20;;
61640;SDS011;62201;49.966;8.342;2023-03-02T10:00:55;12.32;;;8.25;;
61640;SDS011;62201;49.966;8.342;2023-03-02T10:03:27;14.90;;;8.15;;
61640;SDS011;62201;49.966;8.342;2023-03-02T10:05:58;15.43;;;9.77;;
61640;SDS011;62201;49.966;8.342;2023-03-02T10:08:24;19.13;;;9.63;;
61640;SDS011;62201;49.966;8.342;2023-03-02T10:13:42;14.18;;;8.55;;
61640;SDS011;62201;49.966;8.342;2023-03-02T10:16:18;18.00;;;8.98;;
61640;SDS011;62201;49.966;8.342;2023-03-02T10:21:52;14.65;;;9.00;;
61640;SDS011;62201;49.966;8.342;2023-03-02T10:27:16;21.63;;;9.55;;
61640;SDS011;62201;49.966;8.342;2023-03-02T10:29:49;18.25;;;9.40;;
61640;SDS011;62201;49.966;8.342;2023-03-02T10:32:22;17.80;;;9.15;;
61640;SDS011;62201;49.966;8.342;2023-03-02T10:34:51;15.38;;;9.63;;
61640;SDS011;62201;49.966;8.342;2023-03-02T10:37:22;16.30;;;8.93;;
61640;SDS011;62201;49.966;8.342;2023-03-02T10:39:50;13.48;;;9.60;;
61640;SDS011;62201;49.966;8.342;2023-03-02T10:42:17;13.75;;;9.32;;
61640;SDS011;62201;49.966;8.342;2023-03-02T10:44:50;16.33;;;9.70;;
61640;SDS011;62201;49.966;8.342;2023-03-02T10:47:26;16.27;;;9.40;;
61640;SDS011;62201;49.966;8.342;2023-03-02T10:49:53;17.20;;;9.82;;
61640;SDS011;62201;49.966;8.342;2023-03-02T10:52:20;18.95;;;9.65;;
61640;SDS011;62201;49.966;8.342;2023-03-02T10:54:47;14.27;;;9.07;;
61640;SDS011;62201;49.966;8.342;2023-03-02T11:00:14;15.85;;;9.63;;
61640;SDS011;62201;49.966;8.342;2023-03-02T11:02:51;15.05;;;9.10;;
61640;SDS011;62201;49.966;8.342;2023-03-02T11:05:33;16.67;;;10.30;;
61640;SDS011;62201;49.966;8.342;2023-03-02T11:08:02;16.05;;;9.55;;
61640;SDS011;62201;49.966;8.342;2023-03-02T11:10:55;15.57;;;9.18;;
61640;SDS011;62201;49.966;8.342;2023-03-02T11:13:28;13.88;;;9.20;;
61640;SDS011;62201;49.966;8.342;2023-03-02T11:15:56;18.60;;;9.77;;
61640;SDS011;62201;49.966;8.342;2023-03-02T11:18:37;17.80;;;9.98;;
61640;SDS011;62201;49.966;8.342;2023-03-02T11:23:57;14.38;;;9.38;;
61640;SDS011;62201;49.966;8.342;2023-03-02T11:32:14;16.95;;;8.68;;
61640;SDS011;62201;49.966;8.342;2023-03-02T11:37:38;15.20;;;9.02;;
61640;SDS011;62201;49.966;8.342;2023-03-02T11:43:19;12.50;;;8.73;;
61640;SDS011;62201;49.966;8.342;2023-03-02T11:45:45;16.27;;;8.23;;
61640;SDS011;62201;49.966;8.342;2023-03-02T11:48:17;16.38;;;8.32;;
61640;SDS011;62201;49.966;8.342;2023-03-02T11:51:34;16.27;;;8.85;;
61640;SDS011;62201;49.966;8.342;2023-03-02T11:53:40;14.40;;;8.68;;
61640;SDS011;62201;49.966;8.342;2023-03-02T11:56:09;15.00;;;8.55;;
61640;SDS011;62201;49.966;8.342;2023-03-02T11:58:35;13.65;;;8.27;;
61640;SDS011;62201;49.966;8.342;2023-03-02T12:01:02;19.63;;;8.10;;
61640;SDS011;62201;49.966;8.342;2023-03-02T12:05:59;15.88;;;8.48;;
61640;SDS011;62201;49.966;8.342;2023-03-02T12:08:32;13.98;;;7.70;;
61640;SDS011;62201;49.966;8.342;2023-03-02T12:13:57;23.02;;;8.50;;
61640;SDS011;62201;49.966;8.342;2023-03-02T12:19:10;18.02;;;8.15;;
61640;SDS011;62201;49.966;8.342;2023-03-02T12:24:35;13.30;;;8.05;;
61640;SDS011;62201;49.966;8.342;2023-03-02T12:27:24;13.38;;;7.50;;
61640;SDS011;62201;49.966;8.342;2023-03-02T12:29:54;20.05;;;8.93;;
61640;SDS011;62201;49.966;8.342;2023-03-02T12:32:32;18.63;;;8.55;;
61640;SDS011;62201;49.966;8.342;2023-03-02T12:37:45;17.30;;;7.97;;
61640;SDS011;62201;49.966;8.342;2023-03-02T12:48:59;13.45;;;7.45;;
61640;SDS011;62201;49.966;8.342;2023-03-02T12:51:32;15.85;;;7.82;;
61640;SDS011;62201;49.966;8.342;2023-03-02T12:54:14;13.38;;;7.47;;
61640;SDS011;62201;49.966;8.342;2023-03-02T12:56:41;19.00;;;7.43;;
61640;SDS011;62201;49.966;8.342;2023-03-02T12:59:15;14.90;;;7.85;;
61640;SDS011;62201;49.966;8.342;2023-03-02T13:04:43;17.35;;;8.77;;
61640;SDS011;62201;49.966;8.342;2023-03-02T13:07:20;18.13;;;7.60;;
61640;SDS011;62201;49.966;8.342;2023-03-02T13:09:51;16.42;;;7.28;;
61640;SDS011;62201;49.966;8.342;2023-03-02T13:12:19;17.40;;;7.55;;
61640;SDS011;62201;49.966;8.342;2023-03-02T13:14:46;15.55;;;7.10;;
61640;SDS011;62201;49.966;8.342;2023-03-02T13:17:26;14.00;;;7.10;;
61640;SDS011;62201;49.966;8.342;2023-03-02T13:19:55;16.33;;;7.72;;
61640;SDS011;62201;49.966;8.342;2023-03-02T13:22:21;14.95;;;8.65;;
61640;SDS011;62201;49.966;8.342;2023-03-02T13:24:48;14.32;;;6.82;;
61640;SDS011;62201;49.966;8.342;2023-03-02T13:27:19;15.75;;;6.93;;
61640;SDS011;62201;49.966;8.342;2023-03-02T13:29:47;14.55;;;5.97;;
61640;SDS011;62201;49.966;8.342;2023-03-02T13:32:14;14.90;;;6.45;;
61640;SDS011;62201;49.966;8.342;2023-03-02T13:34:51;18.13;;;6.95;;
61640;SDS011;62201;49.966;8.342;2023-03-02T13:37:22;15.70;;;6.95;;
61640;SDS011;62201;49.966;8.342;2023-03-02T13:42:50;17.17;;;7.65;;
61640;SDS011;62201;49.966;8.342;2023-03-02T13:45:23;12.98;;;6.63;;
61640;SDS011;62201;49.966;8.342;2023-03-02T13:50:18;15.25;;;6.85;;
61640;SDS011;62201;49.966;8.342;2023-03-02T13:52:47;12.30;;;6.67;;
61640;SDS011;62201;49.966;8.342;2023-03-02T13:55:14;16.70;;;6.72;;
61640;SDS011;62201;49.966;8.342;2023-03-02T13:57:41;14.07;;;6.68;;
61640;SDS011;62201;49.966;8.342;2023-03-02T14:00:11;17.90;;;7.30;;
61640;SDS011;62201;49.966;8.342;2023-03-02T14:02:40;16.85;;;7.10;;
61640;SDS011;62201;49.966;8.342;2023-03-02T14:05:15;16.20;;;6.95;;
61640;SDS011;62201;49.966;8.342;2023-03-02T14:07:42;15.00;;;6.70;;
61640;SDS011;62201;49.966;8.342;2023-03-02T14:10:08;11.23;;;5.28;;
61640;SDS011;62201;49.966;8.342;2023-03-02T14:12:34;17.10;;;6.22;;
61640;SDS011;62201;49.966;8.342;2023-03-02T14:15:00;11.43;;;6.45;;
61640;SDS011;62201;49.966;8.342;2023-03-02T14:17:28;16.52;;;6.60;;
61640;SDS011;62201;49.966;8.342;2023-03-02T14:19:53;15.65;;;7.43;;
61640;SDS011;62201;49.966;8.342;2023-03-02T14:22:19;12.50;;;6.88;;
61640;SDS011;62201;49.966;8.342;2023-03-02T14:24:46;17.30;;;6.95;;
61640;SDS011;62201;49.966;8.342;2023-03-02T14:27:15;17.33;;;7.22;;
61640;SDS011;62201;49.966;8.342;2023-03-02T14:29:42;16.10;;;6.80;;
61640;SDS011;62201;49.966;8.342;2023-03-02T14:32:09;13.07;;;6.43;;
61640;SDS011;62201;49.966;8.342;2023-03-02T14:34:36;15.55;;;6.35;;
61640;SDS011;62201;49.966;8.342;2023-03-02T14:37:02;11.38;;;6.78;;
61640;SDS011;62201;49.966;8.342;2023-03-02T14:39:34;12.93;;;6.60;;
61640;SDS011;62201;49.966;8.342;2023-03-02T14:42:03;12.85;;;6.68;;
61640;SDS011;62201;49.966;8.342;2023-03-02T14:44:29;13.35;;;7.03;;
61640;SDS011;62201;49.966;8.342;2023-03-02T14:46:54;14.52;;;6.60;;
61640;SDS011;62201;49.966;8.342;2023-03-02T14:49:21;13.43;;;6.72;;
61640;SDS011;62201;49.966;8.342;2023-03-02T14:51:54;14.55;;;6.72;;
61640;SDS011;62201;49.966;8.342;2023-03-02T14:54:23;12.02;;;7.00;;
61640;SDS011;62201;49.966;8.342;2023-03-02T14:56:48;13.02;;;6.53;;
61640;SDS011;62201;49.966;8.342;2023-03-02T14:59:14;14.02;;;6.80;;
61640;SDS011;62201;49.966;8.342;2023-03-02T15:01:40;11.98;;;6.85;;
61640;SDS011;62201;49.966;8.342;2023-03-02T15:04:08;12.65;;;6.85;;
61640;SDS011;62201;49.966;8.342;2023-03-02T15:06:35;12.80;;;7.28;;
61640;SDS011;62201;49.966;8.342;2023-03-02T15:09:02;12.25;;;7.18;;
61640;SDS011;62201;49.966;8.342;2023-03-02T15:11:28;13.50;;;7.03;;
61640;SDS011;62201;49.966;8.342;2023-03-02T15:13:54;14.60;;;7.93;;
61640;SDS011;62201;49.966;8.342;2023-03-02T15:16:20;14.98;;;7.10;;
61640;SDS011;62201;49.966;8.342;2023-03-02T15:18:49;15.13;;;6.95;;
61640;SDS011;62201;49.966;8.342;2023-03-02T15:21:18;12.30;;;7.13;;
61640;SDS011;62201;49.966;8.342;2023-03-02T15:23:45;11.75;;;7.30;;
61640;SDS011;62201;49.966;8.342;2023-03-02T15:26:16;11.02;;;6.53;;
61640;SDS011;62201;49.966;8.342;2023-03-02T15:28:41;14.82;;;7.10;;
61640;SDS011;62201;49.966;8.342;2023-03-02T15:31:10;13.05;;;6.78;;
61640;SDS011;62201;49.966;8.342;2023-03-02T15:33:38;17.98;;;7.53;;
61640;SDS011;62201;49.966;8.342;2023-03-02T15:36:04;19.63;;;7.50;;
61640;SDS011;62201;49.966;8.342;2023-03-02T15:38:31;12.88;;;7.38;;
61640;SDS011;62201;49.966;8.342;2023-03-02T15:40:57;16.95;;;7.35;;
61640;SDS011;62201;49.966;8.342;2023-03-02T15:43:23;13.05;;;7.35;;
61640;SDS011;62201;49.966;8.342;2023-03-02T15:45:48;16.73;;;7.95;;
61640;SDS011;62201;49.966;8.342;2023-03-02T15:48:13;10.80;;;7.32;;
61640;SDS011;62201;49.966;8.342;2023-03-02T15:50:39;14.93;;;7.07;;